createdAt,value
2022-10-20T00:00:01.009Z,13.00
2022-10-20T00:03:26.245Z,14.97
2022-10-20T00:06:52.730Z,9.93
2022-10-20T00:10:17.310Z,9.23
2022-10-20T00:13:42.732Z,11.20
2022-10-20T00:17:07.857Z,10.63
2022-10-20T00:20:31.489Z,10.77
2022-10-20T00:23:56.205Z,10.60
2022-10-20T00:27:21.046Z,10.37
2022-10-20T00:30:45.536Z,10.57
2022-10-20T00:34:10.955Z,10.20
2022-10-20T00:37:34.686Z,15.50
2022-10-20T00:40:59.897Z,9.60
2022-10-20T00:44:51.421Z,11.50
2022-10-20T00:48:17.426Z,11.57
2022-10-20T00:51:43.932Z,12.23
2022-10-20T00:55:09.763Z,17.30
2022-10-20T00:58:36.158Z,11.93
2022-10-20T01:02:02.067Z,15.57
2022-10-20T01:05:25.685Z,10.90
2022-10-20T01:08:51.967Z,13.07
2022-10-20T01:12:28.474Z,14.77
2022-10-20T01:16:00.542Z,14.30
2022-10-20T01:20:09.979Z,13.60
2022-10-20T01:24:01.240Z,16.27
2022-10-20T01:27:37.320Z,12.20
2022-10-20T01:31:05.357Z,11.83
2022-10-20T01:34:33.886Z,16.50
2022-10-20T01:38:07.428Z,12.80
2022-10-20T01:41:34.120Z,15.00
2022-10-20T01:45:02.726Z,15.60
2022-10-20T01:48:31.592Z,12.70
2022-10-20T01:51:56.930Z,14.00
2022-10-20T01:55:20.441Z,13.97
2022-10-20T01:59:20.327Z,12.57
2022-10-20T02:02:59.733Z,13.87
2022-10-20T02:06:33.253Z,14.43
2022-10-20T02:10:01.642Z,12.53
2022-10-20T02:13:28.281Z,11.93
2022-10-20T02:16:56.419Z,13.87
2022-10-20T02:20:22.349Z,13.13
2022-10-20T02:23:49.296Z,14.07
2022-10-20T02:27:16.995Z,14.63
2022-10-20T02:30:42.063Z,14.53
2022-10-20T02:34:05.789Z,15.03
2022-10-20T02:37:31.136Z,15.20
2022-10-20T02:40:54.641Z,14.80
2022-10-20T02:44:20.099Z,16.20
2022-10-20T02:47:44.963Z,17.33
2022-10-20T02:51:08.717Z,15.53
2022-10-20T02:54:34.042Z,14.37
2022-10-20T02:57:57.763Z,16.70
2022-10-20T03:01:22.426Z,14.03
2022-10-20T03:04:46.698Z,15.23
2022-10-20T03:08:10.764Z,16.43
2022-10-20T03:11:36.474Z,13.83
2022-10-20T03:15:00.680Z,15.03
2022-10-20T03:18:24.715Z,14.40
2022-10-20T03:21:49.574Z,16.10
2022-10-20T03:25:13.736Z,15.73
2022-10-20T03:28:38.691Z,18.33
2022-10-20T03:32:02.892Z,21.50
2022-10-20T03:35:26.838Z,14.00
2022-10-20T03:38:50.814Z,16.80
2022-10-20T03:42:15.624Z,14.47
2022-10-20T03:45:42.346Z,17.10
2022-10-20T03:49:05.917Z,15.37
2022-10-20T03:52:29.739Z,16.50
2022-10-20T03:55:53.992Z,14.30
2022-10-20T03:59:17.749Z,16.90
2022-10-20T04:02:47.166Z,14.20
2022-10-20T04:06:12.778Z,17.90
2022-10-20T04:09:36.283Z,17.63
2022-10-20T04:13:01.216Z,14.80
2022-10-20T04:16:25.940Z,14.57
2022-10-20T04:19:51.127Z,16.37
2022-10-20T04:23:14.912Z,15.03
2022-10-20T04:26:38.858Z,19.63
2022-10-20T04:30:04.887Z,21.23
2022-10-20T04:33:29.624Z,14.07
2022-10-20T04:36:56.675Z,15.10
2022-10-20T04:40:20.818Z,14.90
2022-10-20T04:43:44.914Z,15.13
2022-10-20T04:47:11.554Z,16.40
2022-10-20T04:50:35.059Z,13.53
2022-10-20T04:54:07.394Z,14.20
2022-10-20T04:57:31.851Z,15.13
2022-10-20T05:00:55.938Z,15.37
2022-10-20T05:04:21.706Z,23.47
2022-10-20T05:07:45.380Z,16.93
2022-10-20T05:11:13.037Z,16.00
2022-10-20T05:14:36.693Z,14.80
2022-10-20T05:18:01.039Z,14.17
2022-10-20T05:21:27.395Z,13.13
2022-10-20T05:24:51.856Z,15.77
2022-10-20T05:28:16.881Z,17.00
2022-10-20T05:31:43.034Z,16.53
2022-10-20T05:35:07.494Z,15.27
2022-10-20T05:38:31.133Z,15.17
2022-10-20T05:41:54.982Z,18.80
2022-10-20T05:45:21.565Z,17.20
2022-10-20T05:48:45.498Z,17.13
2022-10-20T05:52:09.964Z,20.27
2022-10-20T05:55:34.222Z,17.17
2022-10-20T05:58:59.090Z,17.03
2022-10-20T06:02:24.352Z,18.80
2022-10-20T06:05:48.026Z,17.30
2022-10-20T06:09:13.075Z,15.67
2022-10-20T06:12:37.454Z,17.80
2022-10-20T06:16:06.497Z,14.57
2022-10-20T06:19:31.859Z,14.87
2022-10-20T06:23:02.594Z,16.27
2022-10-20T06:26:32.766Z,15.83
2022-10-20T06:30:01.679Z,13.10
2022-10-20T06:33:26.355Z,19.47
2022-10-20T06:36:54.207Z,17.30
2022-10-20T06:40:18.165Z,21.50
2022-10-20T06:43:42.033Z,16.73
2022-10-20T06:47:09.993Z,14.83
2022-10-20T06:50:34.843Z,18.23
2022-10-20T06:54:01.841Z,17.97
2022-10-20T06:57:28.779Z,13.90
2022-10-20T07:01:00.628Z,13.70
2022-10-20T07:04:25.102Z,14.00
2022-10-20T07:07:49.151Z,15.23
2022-10-20T07:11:16.336Z,17.17
2022-10-20T07:14:40.057Z,15.27
2022-10-20T07:18:06.346Z,13.43
2022-10-20T07:21:34.942Z,18.40
2022-10-20T07:25:06.057Z,12.90
2022-10-20T07:28:31.365Z,11.80
2022-10-20T07:31:57.806Z,15.30
2022-10-20T07:35:25.284Z,13.20
2022-10-20T07:38:49.605Z,12.87
2022-10-20T07:42:13.226Z,19.50
2022-10-20T07:45:38.107Z,12.33
2022-10-20T07:52:45.249Z,12.80
2022-10-20T07:56:09.200Z,14.70
2022-10-20T07:59:32.926Z,10.73
2022-10-20T08:02:57.920Z,13.80
2022-10-20T08:06:21.610Z,12.83
2022-10-20T08:13:14.377Z,11.10
2022-10-20T08:16:44.433Z,15.43
2022-10-20T08:20:22.400Z,14.40
2022-10-20T08:23:50.103Z,12.40
2022-10-20T08:27:13.651Z,14.47
2022-10-20T08:30:37.416Z,12.87
2022-10-20T08:34:01.004Z,10.97
2022-10-20T08:37:26.264Z,10.67
2022-10-20T08:40:49.862Z,19.30
2022-10-20T08:44:19.232Z,11.50
2022-10-20T08:47:44.568Z,10.40
2022-10-20T08:51:13.866Z,14.60
2022-10-20T08:54:38.847Z,11.03
2022-10-20T08:58:04.879Z,12.33
2022-10-20T09:01:31.565Z,11.40
2022-10-20T09:04:59.632Z,10.77
2022-10-20T09:08:25.129Z,11.20
2022-10-20T09:11:50.642Z,9.23
2022-10-20T09:15:17.282Z,10.57
2022-10-20T09:18:41.562Z,13.53
2022-10-20T09:22:07.377Z,10.00
2022-10-20T09:25:32.095Z,9.50
2022-10-20T09:29:15.825Z,8.43
2022-10-20T09:32:46.434Z,10.27
2022-10-20T09:36:15.558Z,10.83
2022-10-20T09:39:54.155Z,9.80
2022-10-20T09:43:19.655Z,11.00
2022-10-20T09:46:50.563Z,11.70
2022-10-20T09:50:21.492Z,12.83
2022-10-20T09:53:56.293Z,10.87
2022-10-20T09:57:23.163Z,9.83
2022-10-20T10:00:57.767Z,9.63
2022-10-20T10:04:33.998Z,11.33
2022-10-20T10:07:59.893Z,9.40
2022-10-20T10:11:26.017Z,12.70
2022-10-20T10:14:53.078Z,9.10
2022-10-20T10:18:23.934Z,9.13
2022-10-20T10:21:53.504Z,9.30
2022-10-20T10:25:24.016Z,9.33
2022-10-20T10:28:59.307Z,10.17
2022-10-20T10:32:26.786Z,10.57
2022-10-20T10:35:50.811Z,14.10
2022-10-20T10:39:16.599Z,9.40
2022-10-20T10:42:55.695Z,8.93
2022-10-20T10:46:22.627Z,8.30
2022-10-20T10:49:56.461Z,10.07
2022-10-20T10:53:29.732Z,9.20
2022-10-20T10:56:57.762Z,7.27
2022-10-20T11:00:33.608Z,8.27
2022-10-20T11:04:30.378Z,9.27
2022-10-20T11:08:05.398Z,9.47
2022-10-20T11:11:42.466Z,9.10
2022-10-20T11:15:17.505Z,8.20
2022-10-20T11:19:07.979Z,10.87
2022-10-20T11:22:44.565Z,9.73
2022-10-20T11:26:17.540Z,6.07
2022-10-20T11:29:43.976Z,13.20
2022-10-20T11:33:15.137Z,8.40
2022-10-20T11:36:45.081Z,8.70
2022-10-20T11:40:22.535Z,8.57
2022-10-20T11:43:52.698Z,9.37
2022-10-20T11:47:20.715Z,6.90
2022-10-20T11:54:43.259Z,8.63
2022-10-20T11:58:33.361Z,8.47
2022-10-20T12:02:22.540Z,7.87
2022-10-20T12:06:10.061Z,9.23
2022-10-20T12:10:00.645Z,9.03
2022-10-20T12:13:34.720Z,9.07
2022-10-20T12:17:14.312Z,10.47
2022-10-20T12:21:03.691Z,8.77
2022-10-20T12:24:33.203Z,12.50
2022-10-20T12:28:33.053Z,13.33
2022-10-20T12:32:45.196Z,10.10
2022-10-20T12:36:30.856Z,8.93
2022-10-20T12:39:56.193Z,10.33
2022-10-20T12:43:30.960Z,7.93
2022-10-20T12:46:57.846Z,8.13
2022-10-20T12:50:31.287Z,8.50
2022-10-20T12:54:00.647Z,9.43
2022-10-20T12:57:31.339Z,12.23
2022-10-20T13:01:05.702Z,10.50
2022-10-20T13:04:55.044Z,11.90
2022-10-20T13:08:27.501Z,10.70
2022-10-20T13:11:59.834Z,11.47
2022-10-20T13:15:26.589Z,8.90
2022-10-20T13:18:51.614Z,9.33
2022-10-20T13:22:39.392Z,9.97
2022-10-20T13:26:14.283Z,10.47
2022-10-20T13:29:43.696Z,9.87
2022-10-20T13:33:33.972Z,10.40
2022-10-20T13:37:14.149Z,9.30
2022-10-20T13:40:49.097Z,10.20
2022-10-20T13:44:31.524Z,12.13
2022-10-20T13:48:19.295Z,12.10
2022-10-20T13:51:48.158Z,9.37
2022-10-20T13:55:19.237Z,8.57
2022-10-20T13:58:43.474Z,11.60
2022-10-20T14:02:29.228Z,11.03
2022-10-20T14:05:55.445Z,9.50
2022-10-20T14:09:21.482Z,9.17
2022-10-20T14:12:45.149Z,10.90
2022-10-20T14:16:19.414Z,12.60
2022-10-20T14:19:46.029Z,10.80
2022-10-20T14:23:12.591Z,8.63
2022-10-20T14:26:37.853Z,11.60
2022-10-20T14:30:04.140Z,11.33
2022-10-20T14:33:28.512Z,12.90
2022-10-20T14:36:54.485Z,15.10
2022-10-20T14:40:23.227Z,16.60
2022-10-20T14:43:49.888Z,11.60
2022-10-20T14:47:15.756Z,12.17
2022-10-20T14:50:40.890Z,12.37
2022-10-20T14:54:26.068Z,11.33
2022-10-20T14:57:51.417Z,11.77
2022-10-20T15:01:23.850Z,15.40
2022-10-20T15:04:48.618Z,14.30
2022-10-20T15:08:25.098Z,16.13
2022-10-20T15:11:49.240Z,15.97
2022-10-20T15:15:23.965Z,16.60
2022-10-20T15:18:47.691Z,18.77
2022-10-20T15:25:48.036Z,18.80
2022-10-20T15:29:12.044Z,21.90
2022-10-20T15:32:38.090Z,22.73
2022-10-20T15:36:02.211Z,20.03
2022-10-20T15:39:25.854Z,18.73
2022-10-20T15:42:49.841Z,16.47
2022-10-20T15:46:14.983Z,17.23
2022-10-20T15:49:39.967Z,25.73
2022-10-20T15:53:03.621Z,18.63
2022-10-20T15:56:27.402Z,17.53
2022-10-20T15:59:51.023Z,16.57
2022-10-20T16:03:18.162Z,16.77
2022-10-20T16:06:43.673Z,18.47
2022-10-20T16:10:10.893Z,22.60
2022-10-20T16:13:34.552Z,26.80
2022-10-20T16:17:01.093Z,20.17
2022-10-20T16:20:24.653Z,18.63
2022-10-20T16:23:49.675Z,20.60
2022-10-20T16:27:13.343Z,18.33
2022-10-20T16:30:36.989Z,18.37
2022-10-20T16:34:00.957Z,19.83
2022-10-20T16:37:24.621Z,15.73
2022-10-20T16:40:59.433Z,20.23
2022-10-20T16:44:23.086Z,24.77
2022-10-20T16:47:46.666Z,19.27
2022-10-20T16:51:12.093Z,18.33
2022-10-20T16:54:36.282Z,20.27
2022-10-20T16:58:01.346Z,18.70
2022-10-20T17:01:25.071Z,22.23
2022-10-20T17:04:49.648Z,29.60
2022-10-20T17:08:13.235Z,23.13
2022-10-20T17:11:36.764Z,28.33
2022-10-20T17:15:01.751Z,18.73
2022-10-20T17:18:25.346Z,21.43
2022-10-20T17:21:52.493Z,18.33
2022-10-20T17:25:18.762Z,21.13
2022-10-20T17:28:42.972Z,16.90
2022-10-20T17:32:13.244Z,18.27
2022-10-20T17:35:48.677Z,18.77
2022-10-20T17:39:15.984Z,21.77
2022-10-20T17:42:40.005Z,22.40
2022-10-20T17:46:05.654Z,20.43
2022-10-20T17:49:30.642Z,24.30
2022-10-20T17:52:54.336Z,16.43
2022-10-20T17:56:22.122Z,20.23
2022-10-20T17:59:52.897Z,19.87
2022-10-20T18:03:17.813Z,19.67
2022-10-20T18:06:43.996Z,16.23
2022-10-20T18:10:09.066Z,17.27
2022-10-20T18:13:32.683Z,17.93
2022-10-20T18:16:56.639Z,23.10
2022-10-20T18:20:21.242Z,21.13
2022-10-20T18:23:48.142Z,18.97
2022-10-20T18:27:11.780Z,19.63
2022-10-20T18:30:38.832Z,18.70
2022-10-20T18:34:06.681Z,19.37
2022-10-20T18:37:30.843Z,19.00
2022-10-20T18:40:55.789Z,22.10
2022-10-20T18:44:20.419Z,16.40
2022-10-20T18:47:44.989Z,16.40
2022-10-20T18:51:10.277Z,14.10
2022-10-20T18:54:33.952Z,15.70
2022-10-20T18:57:58.959Z,18.70
2022-10-20T19:01:28.418Z,15.30
2022-10-20T19:04:51.977Z,15.00
2022-10-20T19:08:15.655Z,14.40
2022-10-20T19:11:40.690Z,15.30
2022-10-20T19:15:06.447Z,13.80
2022-10-20T19:18:31.093Z,16.50
2022-10-20T19:21:54.722Z,15.73
2022-10-20T19:25:18.300Z,15.83
2022-10-20T19:28:45.264Z,12.23
2022-10-20T19:32:11.371Z,13.70
2022-10-20T19:35:35.243Z,20.03
2022-10-20T19:38:59.406Z,15.30
2022-10-20T19:42:23.114Z,14.80
2022-10-20T19:45:49.183Z,14.57
2022-10-20T19:49:15.310Z,14.20
2022-10-20T19:52:39.310Z,15.83
2022-10-20T19:56:03.518Z,14.93
2022-10-20T19:59:27.546Z,14.80
2022-10-20T20:02:51.280Z,14.70
2022-10-20T20:06:18.270Z,14.87
2022-10-20T20:09:41.822Z,16.13
2022-10-20T20:13:05.761Z,15.77
2022-10-20T20:16:30.315Z,15.60
2022-10-20T20:19:53.953Z,12.73
2022-10-20T20:23:25.926Z,14.97
2022-10-20T20:26:58.256Z,15.63
2022-10-20T20:30:21.848Z,13.33
2022-10-20T20:33:45.504Z,13.17
2022-10-20T20:37:09.124Z,15.97
2022-10-20T20:40:34.154Z,15.70
2022-10-20T20:43:58.054Z,15.90
2022-10-20T20:47:21.702Z,14.67
2022-10-20T20:50:53.122Z,15.33
2022-10-20T20:54:16.753Z,13.73
2022-10-20T20:57:41.761Z,12.60
2022-10-20T21:01:07.303Z,15.60
2022-10-20T21:04:31.053Z,14.10
2022-10-20T21:07:54.674Z,14.90
2022-10-20T21:11:20.680Z,13.97
2022-10-20T21:14:47.853Z,15.40
2022-10-20T21:18:11.449Z,14.00
2022-10-20T21:21:37.247Z,15.53
2022-10-20T21:25:00.874Z,16.10
2022-10-20T21:28:24.574Z,14.53
2022-10-20T21:31:49.603Z,15.80
2022-10-20T21:35:13.277Z,16.07
2022-10-20T21:38:38.360Z,16.10
2022-10-20T21:42:02.006Z,17.70
2022-10-20T21:45:25.904Z,16.47
2022-10-20T21:48:52.646Z,17.80
2022-10-20T21:52:16.252Z,19.93
2022-10-20T21:55:39.881Z,17.73
2022-10-20T21:59:04.041Z,21.50
2022-10-20T22:02:27.570Z,19.93
2022-10-20T22:05:52.858Z,22.50
2022-10-20T22:09:17.590Z,20.10
2022-10-20T22:12:41.364Z,16.77
2022-10-20T22:16:06.653Z,20.70
2022-10-20T22:19:30.295Z,20.73
2022-10-20T22:22:55.359Z,18.87
2022-10-20T22:26:18.962Z,18.80
2022-10-20T22:29:44.442Z,23.67
2022-10-20T22:33:10.357Z,21.00
2022-10-20T22:36:36.518Z,21.07
2022-10-20T22:40:01.514Z,19.50
2022-10-20T22:43:28.024Z,18.30
2022-10-20T22:46:52.182Z,18.60
2022-10-20T22:50:16.345Z,22.80
2022-10-20T22:53:40.600Z,21.37
2022-10-20T22:57:06.658Z,23.23
2022-10-20T23:00:31.354Z,26.27
2022-10-20T23:03:55.295Z,21.10
2022-10-20T23:07:21.872Z,26.77
2022-10-20T23:10:46.278Z,21.10
2022-10-20T23:14:14.026Z,24.90
2022-10-20T23:17:38.614Z,23.43
2022-10-20T23:21:03.543Z,22.67
2022-10-20T23:24:27.253Z,25.43
2022-10-20T23:27:51.166Z,18.83
2022-10-20T23:31:19.346Z,21.10
2022-10-20T23:34:43.220Z,18.80
2022-10-20T23:38:09.302Z,20.00
2022-10-20T23:41:33.275Z,22.77
2022-10-20T23:44:57.402Z,23.47
2022-10-20T23:48:22.800Z,23.90
2022-10-20T23:51:47.591Z,23.17
2022-10-20T23:55:14.677Z,19.57
2022-10-20T23:58:40.223Z,23.23
